Terminal Aerodrome Forecast
Issued by NWS St Louis, MO

Home | Current Version | Previous Version | Text Only | Print | Product List | Glossary On
Versions: 1 2 3 4 5 6 7 8 9 10 11 12 13 14 15 16 17 18 19 20 21
647
FTUS43 KLSX 081132
TAFCOU
TAF
KCOU 081132Z 0812/0912 30020G30KT 6SM -SN OVC035
      TEMPO 0812/0816 3SM -SN BKN015
     FM082100 32017G27KT P6SM OVC030=

USA.gov is the U.S. government's official web portal to all federal, state and local government web resources and services.